sensor_id;sensor_type;location;lat;lon;timestamp;temperature;humidity
39677;DHT22;27789;50.840;4.386;2022-08-21T00:00:15;20.20;91.50
39677;DHT22;27789;50.840;4.386;2022-08-21T00:02:45;20.20;91.50
39677;DHT22;27789;50.840;4.386;2022-08-21T00:05:11;20.20;91.70
39677;DHT22;27789;50.840;4.386;2022-08-21T00:07:37;20.20;91.90
39677;DHT22;27789;50.840;4.386;2022-08-21T00:10:03;20.10;92.00
39677;DHT22;27789;50.840;4.386;2022-08-21T00:12:29;20.10;92.00
39677;DHT22;27789;50.840;4.386;2022-08-21T00:14:54;20.00;92.30
39677;DHT22;27789;50.840;4.386;2022-08-21T00:17:20;20.00;92.60
39677;DHT22;27789;50.840;4.386;2022-08-21T00:19:45;20.00;92.70
39677;DHT22;27789;50.840;4.386;2022-08-21T00:22:11;19.90;92.80
39677;DHT22;27789;50.840;4.386;2022-08-21T00:24:36;20.00;92.90
39677;DHT22;27789;50.840;4.386;2022-08-21T00:27:02;19.90;92.80
39677;DHT22;27789;50.840;4.386;2022-08-21T00:29:27;19.90;93.10
39677;DHT22;27789;50.840;4.386;2022-08-21T00:31:53;19.80;93.00
39677;DHT22;27789;50.840;4.386;2022-08-21T00:34:18;19.80;93.10
39677;DHT22;27789;50.840;4.386;2022-08-21T00:36:44;19.70;93.40
39677;DHT22;27789;50.840;4.386;2022-08-21T00:39:09;19.80;93.20
39677;DHT22;27789;50.840;4.386;2022-08-21T00:41:36;19.70;93.80
39677;DHT22;27789;50.840;4.386;2022-08-21T00:44:02;19.60;94.00
39677;DHT22;27789;50.840;4.386;2022-08-21T00:46:27;19.60;93.70
39677;DHT22;27789;50.840;4.386;2022-08-21T00:48:53;19.70;93.60
39677;DHT22;27789;50.840;4.386;2022-08-21T00:51:20;19.60;93.70
39677;DHT22;27789;50.840;4.386;2022-08-21T00:53:49;19.50;93.90
39677;DHT22;27789;50.840;4.386;2022-08-21T00:56:17;19.50;94.30
39677;DHT22;27789;50.840;4.386;2022-08-21T00:58:43;19.50;94.30
39677;DHT22;27789;50.840;4.386;2022-08-21T01:01:08;19.50;94.40
39677;DHT22;27789;50.840;4.386;2022-08-21T01:03:34;19.50;94.20
39677;DHT22;27789;50.840;4.386;2022-08-21T01:06:00;19.40;94.30
39677;DHT22;27789;50.840;4.386;2022-08-21T01:08:26;19.40;94.40
39677;DHT22;27789;50.840;4.386;2022-08-21T01:10:54;19.40;94.40
39677;DHT22;27789;50.840;4.386;2022-08-21T01:13:20;19.40;94.50
39677;DHT22;27789;50.840;4.386;2022-08-21T01:15:48;19.40;94.80
39677;DHT22;27789;50.840;4.386;2022-08-21T01:18:15;19.40;94.60
39677;DHT22;27789;50.840;4.386;2022-08-21T01:23:17;19.30;94.90
39677;DHT22;27789;50.840;4.386;2022-08-21T01:25:42;19.30;95.20
39677;DHT22;27789;50.840;4.386;2022-08-21T01:28:10;19.30;95.10
39677;DHT22;27789;50.840;4.386;2022-08-21T01:30:36;19.30;95.00
39677;DHT22;27789;50.840;4.386;2022-08-21T01:33:02;19.30;95.00
39677;DHT22;27789;50.840;4.386;2022-08-21T01:35:28;19.30;95.10
39677;DHT22;27789;50.840;4.386;2022-08-21T01:37:53;19.30;95.30
39677;DHT22;27789;50.840;4.386;2022-08-21T01:40:19;19.30;95.50
39677;DHT22;27789;50.840;4.386;2022-08-21T01:42:45;19.30;95.50
39677;DHT22;27789;50.840;4.386;2022-08-21T01:45:11;19.30;95.40
39677;DHT22;27789;50.840;4.386;2022-08-21T01:47:37;19.20;95.60
39677;DHT22;27789;50.840;4.386;2022-08-21T01:50:04;19.20;95.60
39677;DHT22;27789;50.840;4.386;2022-08-21T01:52:30;19.10;96.10
39677;DHT22;27789;50.840;4.386;2022-08-21T01:54:56;19.10;96.20
39677;DHT22;27789;50.840;4.386;2022-08-21T01:57:21;19.10;95.90
39677;DHT22;27789;50.840;4.386;2022-08-21T01:59:47;19.10;96.10
39677;DHT22;27789;50.840;4.386;2022-08-21T02:02:12;19.10;96.00
39677;DHT22;27789;50.840;4.386;2022-08-21T02:04:38;19.20;95.80
39677;DHT22;27789;50.840;4.386;2022-08-21T02:07:03;19.10;96.10
39677;DHT22;27789;50.840;4.386;2022-08-21T02:09:29;19.10;95.90
39677;DHT22;27789;50.840;4.386;2022-08-21T02:11:54;19.00;96.10
39677;DHT22;27789;50.840;4.386;2022-08-21T02:14:20;19.00;96.20
39677;DHT22;27789;50.840;4.386;2022-08-21T02:16:46;19.00;96.20
39677;DHT22;27789;50.840;4.386;2022-08-21T02:19:12;19.00;96.70
39677;DHT22;27789;50.840;4.386;2022-08-21T02:21:38;19.00;96.50
39677;DHT22;27789;50.840;4.386;2022-08-21T02:24:04;19.00;96.60
39677;DHT22;27789;50.840;4.386;2022-08-21T02:26:30;18.90;96.60
39677;DHT22;27789;50.840;4.386;2022-08-21T02:28:55;18.90;96.70
39677;DHT22;27789;50.840;4.386;2022-08-21T02:31:20;18.90;96.80
39677;DHT22;27789;50.840;4.386;2022-08-21T02:33:46;18.90;96.80
39677;DHT22;27789;50.840;4.386;2022-08-21T02:36:11;18.90;97.00
39677;DHT22;27789;50.840;4.386;2022-08-21T02:38:38;18.90;97.10
39677;DHT22;27789;50.840;4.386;2022-08-21T02:41:06;18.90;97.20
39677;DHT22;27789;50.840;4.386;2022-08-21T02:43:32;18.90;97.40
39677;DHT22;27789;50.840;4.386;2022-08-21T02:45:58;18.80;97.50
39677;DHT22;27789;50.840;4.386;2022-08-21T02:48:25;18.90;97.60
39677;DHT22;27789;50.840;4.386;2022-08-21T02:50:52;18.80;97.70
39677;DHT22;27789;50.840;4.386;2022-08-21T02:53:18;18.80;97.90
39677;DHT22;27789;50.840;4.386;2022-08-21T02:55:45;18.80;97.80
39677;DHT22;27789;50.840;4.386;2022-08-21T02:58:12;18.80;97.90
39677;DHT22;27789;50.840;4.386;2022-08-21T03:00:38;18.80;97.90
39677;DHT22;27789;50.840;4.386;2022-08-21T03:03:04;18.80;97.90
39677;DHT22;27789;50.840;4.386;2022-08-21T03:05:30;18.80;97.70
39677;DHT22;27789;50.840;4.386;2022-08-21T03:08:00;18.80;97.90
39677;DHT22;27789;50.840;4.386;2022-08-21T03:10:26;18.70;97.90
39677;DHT22;27789;50.840;4.386;2022-08-21T03:12:52;18.70;98.00
39677;DHT22;27789;50.840;4.386;2022-08-21T03:15:19;18.70;98.20
39677;DHT22;27789;50.840;4.386;2022-08-21T03:17:44;18.70;98.40
39677;DHT22;27789;50.840;4.386;2022-08-21T03:20:18;18.80;98.30
39677;DHT22;27789;50.840;4.386;2022-08-21T03:22:44;18.70;98.50
39677;DHT22;27789;50.840;4.386;2022-08-21T03:25:09;18.70;98.50
39677;DHT22;27789;50.840;4.386;2022-08-21T03:27:35;18.70;98.80
39677;DHT22;27789;50.840;4.386;2022-08-21T03:30:02;18.70;98.80
39677;DHT22;27789;50.840;4.386;2022-08-21T03:32:28;18.70;99.00
39677;DHT22;27789;50.840;4.386;2022-08-21T03:34:57;18.70;99.20
39677;DHT22;27789;50.840;4.386;2022-08-21T03:37:23;18.60;99.10
39677;DHT22;27789;50.840;4.386;2022-08-21T03:39:49;18.60;99.10
39677;DHT22;27789;50.840;4.386;2022-08-21T03:42:15;18.60;99.20
39677;DHT22;27789;50.840;4.386;2022-08-21T03:44:41;18.60;99.30
39677;DHT22;27789;50.840;4.386;2022-08-21T03:47:06;18.60;99.30
39677;DHT22;27789;50.840;4.386;2022-08-21T03:49:32;18.50;99.60
39677;DHT22;27789;50.840;4.386;2022-08-21T03:51:58;18.50;99.20
39677;DHT22;27789;50.840;4.386;2022-08-21T03:54:24;18.50;99.20
39677;DHT22;27789;50.840;4.386;2022-08-21T03:56:50;18.50;99.10
39677;DHT22;27789;50.840;4.386;2022-08-21T03:59:16;18.50;99.30
39677;DHT22;27789;50.840;4.386;2022-08-21T04:01:50;18.40;99.40
39677;DHT22;27789;50.840;4.386;2022-08-21T04:04:16;18.40;99.20
39677;DHT22;27789;50.840;4.386;2022-08-21T04:06:41;18.40;99.40
39677;DHT22;27789;50.840;4.386;2022-08-21T04:09:07;18.40;99.60
39677;DHT22;27789;50.840;4.386;2022-08-21T04:11:33;18.30;99.50
39677;DHT22;27789;50.840;4.386;2022-08-21T04:13:59;18.40;99.70
39677;DHT22;27789;50.840;4.386;2022-08-21T04:16:24;18.40;99.70
39677;DHT22;27789;50.840;4.386;2022-08-21T04:18:49;18.40;99.80
39677;DHT22;27789;50.840;4.386;2022-08-21T04:21:15;18.40;99.80
39677;DHT22;27789;50.840;4.386;2022-08-21T04:23:41;18.40;99.90
39677;DHT22;27789;50.840;4.386;2022-08-21T04:26:06;18.30;99.90
39677;DHT22;27789;50.840;4.386;2022-08-21T04:28:32;18.30;99.90
39677;DHT22;27789;50.840;4.386;2022-08-21T04:30:58;18.30;99.90
39677;DHT22;27789;50.840;4.386;2022-08-21T04:33:23;18.30;99.90
39677;DHT22;27789;50.840;4.386;2022-08-21T04:35:49;18.30;99.90
39677;DHT22;27789;50.840;4.386;2022-08-21T04:38:15;18.40;99.90
39677;DHT22;27789;50.840;4.386;2022-08-21T04:40:41;18.40;99.90
39677;DHT22;27789;50.840;4.386;2022-08-21T04:43:08;18.30;99.90
39677;DHT22;27789;50.840;4.386;2022-08-21T04:45:35;18.30;99.90
39677;DHT22;27789;50.840;4.386;2022-08-21T04:48:03;18.30;99.90
39677;DHT22;27789;50.840;4.386;2022-08-21T04:53:08;18.30;99.90
39677;DHT22;27789;50.840;4.386;2022-08-21T04:55:35;18.30;99.90
39677;DHT22;27789;50.840;4.386;2022-08-21T04:58:02;18.30;99.90
39677;DHT22;27789;50.840;4.386;2022-08-21T05:00:28;18.30;99.90
39677;DHT22;27789;50.840;4.386;2022-08-21T05:02:53;18.30;99.90
39677;DHT22;27789;50.840;4.386;2022-08-21T05:05:22;18.30;99.90
39677;DHT22;27789;50.840;4.386;2022-08-21T05:07:47;18.30;99.90
39677;DHT22;27789;50.840;4.386;2022-08-21T05:10:13;18.30;99.90
39677;DHT22;27789;50.840;4.386;2022-08-21T05:12:39;18.30;99.90
39677;DHT22;27789;50.840;4.386;2022-08-21T05:15:07;18.30;99.90
39677;DHT22;27789;50.840;4.386;2022-08-21T05:17:32;18.30;99.90
39677;DHT22;27789;50.840;4.386;2022-08-21T05:19:58;18.30;99.90
39677;DHT22;27789;50.840;4.386;2022-08-21T05:22:23;18.30;99.90
39677;DHT22;27789;50.840;4.386;2022-08-21T05:24:49;18.30;99.90
39677;DHT22;27789;50.840;4.386;2022-08-21T05:27:15;18.40;99.90
39677;DHT22;27789;50.840;4.386;2022-08-21T05:29:40;18.40;99.90
39677;DHT22;27789;50.840;4.386;2022-08-21T05:32:09;18.40;99.90
39677;DHT22;27789;50.840;4.386;2022-08-21T05:34:35;18.40;99.90
39677;DHT22;27789;50.840;4.386;2022-08-21T05:37:00;18.40;99.90
39677;DHT22;27789;50.840;4.386;2022-08-21T05:39:26;18.40;99.90
39677;DHT22;27789;50.840;4.386;2022-08-21T05:41:51;18.40;99.90
39677;DHT22;27789;50.840;4.386;2022-08-21T05:44:17;18.30;99.90
39677;DHT22;27789;50.840;4.386;2022-08-21T05:46:42;18.30;99.90
39677;DHT22;27789;50.840;4.386;2022-08-21T05:49:08;18.30;99.90
39677;DHT22;27789;50.840;4.386;2022-08-21T05:51:33;18.30;99.90
39677;DHT22;27789;50.840;4.386;2022-08-21T05:53:59;18.30;99.90
39677;DHT22;27789;50.840;4.386;2022-08-21T05:56:24;18.30;99.90
39677;DHT22;27789;50.840;4.386;2022-08-21T05:58:50;18.30;99.90
39677;DHT22;27789;50.840;4.386;2022-08-21T06:01:16;18.30;99.90
39677;DHT22;27789;50.840;4.386;2022-08-21T06:03:41;18.30;99.90
39677;DHT22;27789;50.840;4.386;2022-08-21T06:06:08;18.40;99.90
39677;DHT22;27789;50.840;4.386;2022-08-21T06:08:34;18.40;99.90
39677;DHT22;27789;50.840;4.386;2022-08-21T06:11:00;18.40;99.90
39677;DHT22;27789;50.840;4.386;2022-08-21T06:13:26;18.40;99.90
39677;DHT22;27789;50.840;4.386;2022-08-21T06:18:29;18.50;99.90
39677;DHT22;27789;50.840;4.386;2022-08-21T06:20:54;18.60;99.90
39677;DHT22;27789;50.840;4.386;2022-08-21T06:23:20;18.60;99.90
39677;DHT22;27789;50.840;4.386;2022-08-21T06:25:45;18.60;99.90
39677;DHT22;27789;50.840;4.386;2022-08-21T06:28:11;18.50;99.90
39677;DHT22;27789;50.840;4.386;2022-08-21T06:30:38;18.60;99.90
39677;DHT22;27789;50.840;4.386;2022-08-21T06:33:03;18.70;99.90
39677;DHT22;27789;50.840;4.386;2022-08-21T06:35:29;18.60;99.90
39677;DHT22;27789;50.840;4.386;2022-08-21T06:37:55;18.70;99.90
39677;DHT22;27789;50.840;4.386;2022-08-21T06:40:21;18.70;99.80
39677;DHT22;27789;50.840;4.386;2022-08-21T06:42:46;18.80;99.90
39677;DHT22;27789;50.840;4.386;2022-08-21T06:45:12;18.80;99.90
39677;DHT22;27789;50.840;4.386;2022-08-21T06:47:38;18.80;99.90
39677;DHT22;27789;50.840;4.386;2022-08-21T06:50:03;18.80;99.90
39677;DHT22;27789;50.840;4.386;2022-08-21T06:52:30;18.80;99.90
39677;DHT22;27789;50.840;4.386;2022-08-21T06:54:55;18.90;99.90
39677;DHT22;27789;50.840;4.386;2022-08-21T06:57:21;18.90;99.90
39677;DHT22;27789;50.840;4.386;2022-08-21T06:59:47;19.00;99.90
39677;DHT22;27789;50.840;4.386;2022-08-21T07:02:12;19.00;99.90
39677;DHT22;27789;50.840;4.386;2022-08-21T07:04:37;19.00;99.90
39677;DHT22;27789;50.840;4.386;2022-08-21T07:07:03;19.00;99.90
39677;DHT22;27789;50.840;4.386;2022-08-21T07:09:28;19.10;99.90
39677;DHT22;27789;50.840;4.386;2022-08-21T07:11:54;19.20;99.90
39677;DHT22;27789;50.840;4.386;2022-08-21T07:14:20;19.20;99.90
39677;DHT22;27789;50.840;4.386;2022-08-21T07:16:46;19.30;99.90
39677;DHT22;27789;50.840;4.386;2022-08-21T07:19:12;19.40;99.90
39677;DHT22;27789;50.840;4.386;2022-08-21T07:21:37;19.40;99.90
39677;DHT22;27789;50.840;4.386;2022-08-21T07:24:03;19.40;99.90
39677;DHT22;27789;50.840;4.386;2022-08-21T07:26:28;19.40;99.90
39677;DHT22;27789;50.840;4.386;2022-08-21T07:28:54;19.50;99.90
39677;DHT22;27789;50.840;4.386;2022-08-21T07:31:21;19.60;99.90
39677;DHT22;27789;50.840;4.386;2022-08-21T07:33:48;19.60;99.90
39677;DHT22;27789;50.840;4.386;2022-08-21T07:36:13;19.70;99.90
39677;DHT22;27789;50.840;4.386;2022-08-21T07:38:39;19.70;99.90
39677;DHT22;27789;50.840;4.386;2022-08-21T07:41:07;19.70;99.90
39677;DHT22;27789;50.840;4.386;2022-08-21T07:43:36;19.80;99.90
39677;DHT22;27789;50.840;4.386;2022-08-21T07:46:02;19.90;99.90
39677;DHT22;27789;50.840;4.386;2022-08-21T07:48:27;20.00;99.90
39677;DHT22;27789;50.840;4.386;2022-08-21T07:50:52;20.00;99.90
39677;DHT22;27789;50.840;4.386;2022-08-21T07:53:18;20.10;99.90
39677;DHT22;27789;50.840;4.386;2022-08-21T07:55:44;20.20;99.90
39677;DHT22;27789;50.840;4.386;2022-08-21T07:58:09;20.20;99.90
39677;DHT22;27789;50.840;4.386;2022-08-21T08:00:35;20.20;99.90
39677;DHT22;27789;50.840;4.386;2022-08-21T08:03:00;20.30;99.90
39677;DHT22;27789;50.840;4.386;2022-08-21T08:05:28;20.30;99.90
39677;DHT22;27789;50.840;4.386;2022-08-21T08:07:54;20.30;99.90
39677;DHT22;27789;50.840;4.386;2022-08-21T08:10:20;20.40;99.90
39677;DHT22;27789;50.840;4.386;2022-08-21T08:12:46;20.50;99.90
39677;DHT22;27789;50.840;4.386;2022-08-21T08:15:14;20.50;99.90
39677;DHT22;27789;50.840;4.386;2022-08-21T08:17:40;20.50;99.90
39677;DHT22;27789;50.840;4.386;2022-08-21T08:20:06;20.50;99.90
39677;DHT22;27789;50.840;4.386;2022-08-21T08:22:32;20.60;99.90
39677;DHT22;27789;50.840;4.386;2022-08-21T08:24:59;20.60;99.90
39677;DHT22;27789;50.840;4.386;2022-08-21T08:27:24;20.60;99.90
39677;DHT22;27789;50.840;4.386;2022-08-21T08:29:50;20.70;99.90
39677;DHT22;27789;50.840;4.386;2022-08-21T08:32:16;20.70;99.90
39677;DHT22;27789;50.840;4.386;2022-08-21T08:34:42;20.80;99.70
39677;DHT22;27789;50.840;4.386;2022-08-21T08:37:08;20.80;99.40
39677;DHT22;27789;50.840;4.386;2022-08-21T08:39:34;20.90;99.40
39677;DHT22;27789;50.840;4.386;2022-08-21T08:42:07;21.00;99.60
39677;DHT22;27789;50.840;4.386;2022-08-21T08:44:35;21.10;98.90
39677;DHT22;27789;50.840;4.386;2022-08-21T08:47:01;21.10;99.10
39677;DHT22;27789;50.840;4.386;2022-08-21T08:49:29;21.20;98.40
39677;DHT22;27789;50.840;4.386;2022-08-21T08:52:01;21.10;98.90
39677;DHT22;27789;50.840;4.386;2022-08-21T08:54:33;21.10;99.00
39677;DHT22;27789;50.840;4.386;2022-08-21T08:57:00;21.20;98.60
39677;DHT22;27789;50.840;4.386;2022-08-21T08:59:27;21.20;99.00
39677;DHT22;27789;50.840;4.386;2022-08-21T09:01:54;21.30;99.30
39677;DHT22;27789;50.840;4.386;2022-08-21T09:04:24;21.40;98.70
39677;DHT22;27789;50.840;4.386;2022-08-21T09:09:29;21.40;98.10
39677;DHT22;27789;50.840;4.386;2022-08-21T09:14:36;21.50;97.90
39677;DHT22;27789;50.840;4.386;2022-08-21T09:17:12;21.60;97.40
39677;DHT22;27789;50.840;4.386;2022-08-21T09:19:48;21.60;97.80
39677;DHT22;27789;50.840;4.386;2022-08-21T09:27:18;21.90;97.10
39677;DHT22;27789;50.840;4.386;2022-08-21T09:29:45;22.00;97.00
39677;DHT22;27789;50.840;4.386;2022-08-21T09:35:21;22.20;95.80
39677;DHT22;27789;50.840;4.386;2022-08-21T09:42:56;22.50;95.40
39677;DHT22;27789;50.840;4.386;2022-08-21T09:45:22;22.60;95.20
39677;DHT22;27789;50.840;4.386;2022-08-21T09:47:47;22.60;94.70
39677;DHT22;27789;50.840;4.386;2022-08-21T09:50:14;22.60;94.40
39677;DHT22;27789;50.840;4.386;2022-08-21T09:52:44;22.80;94.10
39677;DHT22;27789;50.840;4.386;2022-08-21T09:55:13;22.70;94.40
39677;DHT22;27789;50.840;4.386;2022-08-21T09:58:00;22.80;94.70
39677;DHT22;27789;50.840;4.386;2022-08-21T10:00:31;22.90;95.00
39677;DHT22;27789;50.840;4.386;2022-08-21T10:05:33;23.00;94.10
39677;DHT22;27789;50.840;4.386;2022-08-21T10:07:59;23.10;94.70
39677;DHT22;27789;50.840;4.386;2022-08-21T10:10:26;23.20;94.20
39677;DHT22;27789;50.840;4.386;2022-08-21T10:18:25;23.40;93.60
39677;DHT22;27789;50.840;4.386;2022-08-21T10:20:50;23.60;93.30
39677;DHT22;27789;50.840;4.386;2022-08-21T10:28:44;24.10;92.30
39677;DHT22;27789;50.840;4.386;2022-08-21T10:36:39;24.40;91.50
39677;DHT22;27789;50.840;4.386;2022-08-21T10:39:14;24.40;91.50
39677;DHT22;27789;50.840;4.386;2022-08-21T10:41:45;24.60;91.40
39677;DHT22;27789;50.840;4.386;2022-08-21T10:44:22;24.60;91.40
39677;DHT22;27789;50.840;4.386;2022-08-21T10:54:37;25.40;90.40
39677;DHT22;27789;50.840;4.386;2022-08-21T10:57:11;25.60;90.40
39677;DHT22;27789;50.840;4.386;2022-08-21T10:59:39;25.90;89.00
39677;DHT22;27789;50.840;4.386;2022-08-21T11:07:27;26.80;85.00
39677;DHT22;27789;50.840;4.386;2022-08-21T11:09:57;27.20;84.80
39677;DHT22;27789;50.840;4.386;2022-08-21T11:12:29;27.30;84.40
39677;DHT22;27789;50.840;4.386;2022-08-21T11:14:58;27.30;83.50
39677;DHT22;27789;50.840;4.386;2022-08-21T11:18:01;26.80;84.70
39677;DHT22;27789;50.840;4.386;2022-08-21T11:20:26;27.20;84.30
39677;DHT22;27789;50.840;4.386;2022-08-21T11:22:58;27.20;83.80
39677;DHT22;27789;50.840;4.386;2022-08-21T11:25:27;27.20;83.50
39677;DHT22;27789;50.840;4.386;2022-08-21T11:28:00;27.20;83.10
39677;DHT22;27789;50.840;4.386;2022-08-21T11:30:30;27.00;83.60
39677;DHT22;27789;50.840;4.386;2022-08-21T11:43:23;27.00;83.60
39677;DHT22;27789;50.840;4.386;2022-08-21T11:48:26;26.80;83.30
39677;DHT22;27789;50.840;4.386;2022-08-21T11:50:53;26.80;84.30
39677;DHT22;27789;50.840;4.386;2022-08-21T11:53:24;27.60;83.90
39677;DHT22;27789;50.840;4.386;2022-08-21T12:01:00;29.40;78.60
39677;DHT22;27789;50.840;4.386;2022-08-21T12:03:29;30.10;76.40
39677;DHT22;27789;50.840;4.386;2022-08-21T12:13:29;31.90;71.10
39677;DHT22;27789;50.840;4.386;2022-08-21T12:18:32;32.50;67.90
39677;DHT22;27789;50.840;4.386;2022-08-21T12:21:03;32.40;68.30
39677;DHT22;27789;50.840;4.386;2022-08-21T12:23:30;31.90;67.80
39677;DHT22;27789;50.840;4.386;2022-08-21T12:26:10;32.10;67.40
39677;DHT22;27789;50.840;4.386;2022-08-21T12:28:39;32.10;66.80
39677;DHT22;27789;50.840;4.386;2022-08-21T12:31:04;31.90;67.20
39677;DHT22;27789;50.840;4.386;2022-08-21T12:33:41;31.70;68.00
39677;DHT22;27789;50.840;4.386;2022-08-21T12:36:11;30.70;68.80
39677;DHT22;27789;50.840;4.386;2022-08-21T12:41:06;30.20;70.30
39677;DHT22;27789;50.840;4.386;2022-08-21T12:46:01;31.00;70.00
39677;DHT22;27789;50.840;4.386;2022-08-21T12:48:31;31.20;68.70
39677;DHT22;27789;50.840;4.386;2022-08-21T12:51:06;30.90;68.20
39677;DHT22;27789;50.840;4.386;2022-08-21T12:53:41;30.40;68.50
39677;DHT22;27789;50.840;4.386;2022-08-21T12:56:09;29.90;68.80
39677;DHT22;27789;50.840;4.386;2022-08-21T12:58:35;29.30;70.10
39677;DHT22;27789;50.840;4.386;2022-08-21T13:01:05;29.10;70.30
39677;DHT22;27789;50.840;4.386;2022-08-21T13:03:30;29.10;70.30
39677;DHT22;27789;50.840;4.386;2022-08-21T13:05:57;29.20;69.90
39677;DHT22;27789;50.840;4.386;2022-08-21T13:08:23;29.10;69.90
39677;DHT22;27789;50.840;4.386;2022-08-21T13:10:55;28.90;70.50
39677;DHT22;27789;50.840;4.386;2022-08-21T13:13:22;28.50;71.20
39677;DHT22;27789;50.840;4.386;2022-08-21T13:15:48;28.30;71.00
39677;DHT22;27789;50.840;4.386;2022-08-21T13:18:22;28.00;71.10
39677;DHT22;27789;50.840;4.386;2022-08-21T13:20:48;27.80;71.80
39677;DHT22;27789;50.840;4.386;2022-08-21T13:23:23;27.70;72.00
39677;DHT22;27789;50.840;4.386;2022-08-21T13:25:48;27.70;72.80
39677;DHT22;27789;50.840;4.386;2022-08-21T13:28:15;27.80;73.80
39677;DHT22;27789;50.840;4.386;2022-08-21T13:30:44;27.70;73.00
39677;DHT22;27789;50.840;4.386;2022-08-21T13:33:10;27.40;73.30
39677;DHT22;27789;50.840;4.386;2022-08-21T13:35:45;27.40;73.60
39677;DHT22;27789;50.840;4.386;2022-08-21T13:38:12;27.20;74.40
39677;DHT22;27789;50.840;4.386;2022-08-21T13:41:08;27.00;74.40
39677;DHT22;27789;50.840;4.386;2022-08-21T13:43:32;26.90;74.90
39677;DHT22;27789;50.840;4.386;2022-08-21T13:45:58;26.70;75.20
39677;DHT22;27789;50.840;4.386;2022-08-21T13:48:26;26.60;75.50
39677;DHT22;27789;50.840;4.386;2022-08-21T13:50:53;26.70;75.50
39677;DHT22;27789;50.840;4.386;2022-08-21T13:53:52;26.70;75.30
39677;DHT22;27789;50.840;4.386;2022-08-21T13:58:47;27.00;74.90
39677;DHT22;27789;50.840;4.386;2022-08-21T14:03:50;27.20;74.60
39677;DHT22;27789;50.840;4.386;2022-08-21T14:06:18;27.10;75.70
39677;DHT22;27789;50.840;4.386;2022-08-21T14:08:47;27.00;75.20
39677;DHT22;27789;50.840;4.386;2022-08-21T14:11:14;27.00;75.10
39677;DHT22;27789;50.840;4.386;2022-08-21T14:13:41;27.10;75.40
39677;DHT22;27789;50.840;4.386;2022-08-21T14:18:48;27.00;74.90
39677;DHT22;27789;50.840;4.386;2022-08-21T14:21:22;26.90;75.40
39677;DHT22;27789;50.840;4.386;2022-08-21T14:23:58;26.70;76.30
39677;DHT22;27789;50.840;4.386;2022-08-21T14:26:24;26.60;76.20
39677;DHT22;27789;50.840;4.386;2022-08-21T14:28:50;26.40;76.80
39677;DHT22;27789;50.840;4.386;2022-08-21T14:31:19;26.40;76.80
39677;DHT22;27789;50.840;4.386;2022-08-21T14:33:45;26.40;77.90
39677;DHT22;27789;50.840;4.386;2022-08-21T14:36:11;26.50;77.90
39677;DHT22;27789;50.840;4.386;2022-08-21T14:38:37;26.50;76.50
39677;DHT22;27789;50.840;4.386;2022-08-21T14:41:04;26.60;76.60
39677;DHT22;27789;50.840;4.386;2022-08-21T14:43:33;26.60;77.10
39677;DHT22;27789;50.840;4.386;2022-08-21T14:45:59;26.70;77.00
39677;DHT22;27789;50.840;4.386;2022-08-21T14:48:25;26.80;76.10
39677;DHT22;27789;50.840;4.386;2022-08-21T14:50:51;26.70;76.30
39677;DHT22;27789;50.840;4.386;2022-08-21T14:53:17;26.70;76.20
39677;DHT22;27789;50.840;4.386;2022-08-21T14:55:42;26.80;76.30
39677;DHT22;27789;50.840;4.386;2022-08-21T14:58:19;26.70;76.50
39677;DHT22;27789;50.840;4.386;2022-08-21T15:00:45;26.60;75.60
39677;DHT22;27789;50.840;4.386;2022-08-21T15:03:10;26.50;75.90
39677;DHT22;27789;50.840;4.386;2022-08-21T15:05:36;26.40;76.50
39677;DHT22;27789;50.840;4.386;2022-08-21T15:08:01;26.40;78.40
39677;DHT22;27789;50.840;4.386;2022-08-21T15:10:27;26.30;78.00
39677;DHT22;27789;50.840;4.386;2022-08-21T15:12:53;26.30;76.30
39677;DHT22;27789;50.840;4.386;2022-08-21T15:15:18;26.20;75.80
39677;DHT22;27789;50.840;4.386;2022-08-21T15:17:44;26.10;75.40
39677;DHT22;27789;50.840;4.386;2022-08-21T15:20:09;26.10;76.70
39677;DHT22;27789;50.840;4.386;2022-08-21T15:22:35;26.10;77.60
39677;DHT22;27789;50.840;4.386;2022-08-21T15:25:01;26.00;76.20
39677;DHT22;27789;50.840;4.386;2022-08-21T15:27:26;25.90;76.70
39677;DHT22;27789;50.840;4.386;2022-08-21T15:29:52;25.80;76.90
39677;DHT22;27789;50.840;4.386;2022-08-21T15:32:23;25.70;77.20
39677;DHT22;27789;50.840;4.386;2022-08-21T15:34:49;25.80;78.50
39677;DHT22;27789;50.840;4.386;2022-08-21T15:37:15;25.80;79.10
39677;DHT22;27789;50.840;4.386;2022-08-21T15:39:40;25.80;78.40
39677;DHT22;27789;50.840;4.386;2022-08-21T15:42:06;25.70;78.30
39677;DHT22;27789;50.840;4.386;2022-08-21T15:44:32;25.70;77.90
39677;DHT22;27789;50.840;4.386;2022-08-21T15:46:58;25.60;78.10
39677;DHT22;27789;50.840;4.386;2022-08-21T15:49:23;25.60;78.40
39677;DHT22;27789;50.840;4.386;2022-08-21T15:51:49;25.60;77.70
39677;DHT22;27789;50.840;4.386;2022-08-21T15:54:15;25.60;78.40
39677;DHT22;27789;50.840;4.386;2022-08-21T15:56:40;25.60;77.30
39677;DHT22;27789;50.840;4.386;2022-08-21T15:59:09;25.60;75.30
39677;DHT22;27789;50.840;4.386;2022-08-21T16:01:37;25.50;76.20
39677;DHT22;27789;50.840;4.386;2022-08-21T16:04:03;25.50;76.60
39677;DHT22;27789;50.840;4.386;2022-08-21T16:06:29;25.40;76.40
39677;DHT22;27789;50.840;4.386;2022-08-21T16:08:55;25.40;75.40
39677;DHT22;27789;50.840;4.386;2022-08-21T16:11:20;25.40;76.20
39677;DHT22;27789;50.840;4.386;2022-08-21T16:13:46;25.40;76.30
39677;DHT22;27789;50.840;4.386;2022-08-21T16:16:13;25.40;76.60
39677;DHT22;27789;50.840;4.386;2022-08-21T16:18:40;25.40;77.30
39677;DHT22;27789;50.840;4.386;2022-08-21T16:21:05;25.30;76.90
39677;DHT22;27789;50.840;4.386;2022-08-21T16:23:32;25.20;76.60
39677;DHT22;27789;50.840;4.386;2022-08-21T16:26:00;25.10;76.80
39677;DHT22;27789;50.840;4.386;2022-08-21T16:28:25;25.10;76.90
39677;DHT22;27789;50.840;4.386;2022-08-21T16:30:51;25.10;77.30
39677;DHT22;27789;50.840;4.386;2022-08-21T16:35:53;25.00;77.90
39677;DHT22;27789;50.840;4.386;2022-08-21T16:38:18;25.00;77.80
39677;DHT22;27789;50.840;4.386;2022-08-21T16:40:44;25.00;77.80
39677;DHT22;27789;50.840;4.386;2022-08-21T16:43:10;25.00;78.40
39677;DHT22;27789;50.840;4.386;2022-08-21T16:45:35;25.10;78.70
39677;DHT22;27789;50.840;4.386;2022-08-21T16:48:01;25.10;78.00
39677;DHT22;27789;50.840;4.386;2022-08-21T16:50:30;25.10;78.10
39677;DHT22;27789;50.840;4.386;2022-08-21T16:52:56;25.00;77.60
39677;DHT22;27789;50.840;4.386;2022-08-21T16:55:21;25.40;76.70
39677;DHT22;27789;50.840;4.386;2022-08-21T16:57:47;25.30;76.90
39677;DHT22;27789;50.840;4.386;2022-08-21T17:00:12;25.20;77.40
39677;DHT22;27789;50.840;4.386;2022-08-21T17:02:41;25.10;76.60
39677;DHT22;27789;50.840;4.386;2022-08-21T17:05:07;25.00;76.60
39677;DHT22;27789;50.840;4.386;2022-08-21T17:07:34;25.10;76.10
39677;DHT22;27789;50.840;4.386;2022-08-21T17:09:59;25.00;76.70